sensor_id;sensor_type;location;lat;lon;timestamp;P1;durP1;ratioP1;P2;durP2;ratioP2
73100;SDS011;61288;53.446;-2.266;2023-03-03T00:00:49;6.03;;;2.10;;
73100;SDS011;61288;53.446;-2.266;2023-03-03T00:03:19;5.80;;;2.20;;
73100;SDS011;61288;53.446;-2.266;2023-03-03T00:05:50;8.35;;;2.35;;
73100;SDS011;61288;53.446;-2.266;2023-03-03T00:08:16;7.82;;;2.60;;
73100;SDS011;61288;53.446;-2.266;2023-03-03T00:10:42;7.88;;;3.03;;
73100;SDS011;61288;53.446;-2.266;2023-03-03T00:13:22;6.47;;;2.58;;
73100;SDS011;61288;53.446;-2.266;2023-03-03T00:15:48;7.47;;;2.85;;
73100;SDS011;61288;53.446;-2.266;2023-03-03T00:18:21;8.30;;;2.78;;
73100;SDS011;61288;53.446;-2.266;2023-03-03T00:20:55;9.50;;;2.95;;
73100;SDS011;61288;53.446;-2.266;2023-03-03T00:25:53;7.93;;;3.20;;
73100;SDS011;61288;53.446;-2.266;2023-03-03T00:28:26;8.40;;;3.00;;
73100;SDS011;61288;53.446;-2.266;2023-03-03T00:31:15;7.63;;;3.15;;
73100;SDS011;61288;53.446;-2.266;2023-03-03T00:34:13;9.77;;;3.58;;
73100;SDS011;61288;53.446;-2.266;2023-03-03T00:36:51;10.23;;;3.58;;
73100;SDS011;61288;53.446;-2.266;2023-03-03T00:41:51;9.45;;;3.38;;
73100;SDS011;61288;53.446;-2.266;2023-03-03T00:52:30;7.70;;;3.00;;
73100;SDS011;61288;53.446;-2.266;2023-03-03T00:54:59;6.80;;;2.67;;
73100;SDS011;61288;53.446;-2.266;2023-03-03T00:57:25;7.47;;;2.85;;
73100;SDS011;61288;53.446;-2.266;2023-03-03T00:59:50;7.18;;;2.83;;
73100;SDS011;61288;53.446;-2.266;2023-03-03T01:02:16;6.47;;;2.58;;
73100;SDS011;61288;53.446;-2.266;2023-03-03T01:04:41;9.23;;;2.83;;
73100;SDS011;61288;53.446;-2.266;2023-03-03T01:09:40;5.55;;;2.33;;
73100;SDS011;61288;53.446;-2.266;2023-03-03T01:12:06;6.82;;;2.30;;
73100;SDS011;61288;53.446;-2.266;2023-03-03T01:14:31;6.47;;;2.30;;
73100;SDS011;61288;53.446;-2.266;2023-03-03T01:16:57;6.55;;;2.60;;
73100;SDS011;61288;53.446;-2.266;2023-03-03T01:19:23;8.73;;;2.70;;
73100;SDS011;61288;53.446;-2.266;2023-03-03T01:21:49;4.95;;;2.30;;
73100;SDS011;61288;53.446;-2.266;2023-03-03T01:24:14;4.53;;;2.20;;
73100;SDS011;61288;53.446;-2.266;2023-03-03T01:26:40;6.65;;;2.38;;
73100;SDS011;61288;53.446;-2.266;2023-03-03T01:29:05;6.43;;;2.22;;
73100;SDS011;61288;53.446;-2.266;2023-03-03T01:31:32;6.15;;;2.63;;
73100;SDS011;61288;53.446;-2.266;2023-03-03T01:33:57;6.32;;;2.42;;
73100;SDS011;61288;53.446;-2.266;2023-03-03T06:30:02;2.72;;;0.80;;
73100;SDS011;61288;53.446;-2.266;2023-03-03T06:32:28;0.82;;;0.80;;
73100;SDS011;61288;53.446;-2.266;2023-03-03T06:34:54;3.30;;;1.05;;
73100;SDS011;61288;53.446;-2.266;2023-03-03T06:37:19;1.70;;;0.73;;
73100;SDS011;61288;53.446;-2.266;2023-03-03T06:39:45;3.30;;;1.10;;
73100;SDS011;61288;53.446;-2.266;2023-03-03T06:42:10;1.92;;;0.80;;
73100;SDS011;61288;53.446;-2.266;2023-03-03T06:44:36;1.23;;;0.82;;
73100;SDS011;61288;53.446;-2.266;2023-03-03T06:47:01;1.80;;;0.90;;
73100;SDS011;61288;53.446;-2.266;2023-03-03T06:49:27;2.08;;;0.90;;
73100;SDS011;61288;53.446;-2.266;2023-03-03T06:51:53;2.05;;;0.77;;
73100;SDS011;61288;53.446;-2.266;2023-03-03T06:54:19;1.13;;;0.73;;
73100;SDS011;61288;53.446;-2.266;2023-03-03T06:56:51;0.70;;;0.52;;
73100;SDS011;61288;53.446;-2.266;2023-03-03T06:59:25;2.15;;;0.65;;
73100;SDS011;61288;53.446;-2.266;2023-03-03T07:01:52;1.45;;;0.40;;
73100;SDS011;61288;53.446;-2.266;2023-03-03T07:06:43;1.15;;;0.60;;
73100;SDS011;61288;53.446;-2.266;2023-03-03T07:09:28;0.82;;;0.68;;
73100;SDS011;61288;53.446;-2.266;2023-03-03T07:11:56;1.40;;;0.70;;
73100;SDS011;61288;53.446;-2.266;2023-03-03T07:14:34;1.20;;;0.60;;
73100;SDS011;61288;53.446;-2.266;2023-03-03T07:17:20;1.92;;;0.88;;
73100;SDS011;61288;53.446;-2.266;2023-03-03T07:19:48;0.90;;;0.70;;
73100;SDS011;61288;53.446;-2.266;2023-03-03T07:22:17;3.42;;;0.88;;
73100;SDS011;61288;53.446;-2.266;2023-03-03T07:24:52;5.47;;;1.13;;
73100;SDS011;61288;53.446;-2.266;2023-03-03T07:27:25;2.25;;;1.00;;
73100;SDS011;61288;53.446;-2.266;2023-03-03T07:29:53;2.10;;;0.90;;
73100;SDS011;61288;53.446;-2.266;2023-03-03T07:32:40;2.90;;;1.20;;
73100;SDS011;61288;53.446;-2.266;2023-03-03T07:38:00;3.58;;;1.20;;
73100;SDS011;61288;53.446;-2.266;2023-03-03T07:40:33;2.92;;;1.00;;
73100;SDS011;61288;53.446;-2.266;2023-03-03T07:44:04;4.05;;;0.82;;
73100;SDS011;61288;53.446;-2.266;2023-03-03T07:48:35;2.13;;;0.82;;
73100;SDS011;61288;53.446;-2.266;2023-03-03T07:51:10;3.85;;;1.20;;
73100;SDS011;61288;53.446;-2.266;2023-03-03T07:53:53;2.60;;;0.93;;
73100;SDS011;61288;53.446;-2.266;2023-03-03T08:07:10;3.58;;;1.00;;
73100;SDS011;61288;53.446;-2.266;2023-03-03T08:09:59;2.67;;;1.00;;
73100;SDS011;61288;53.446;-2.266;2023-03-03T08:15:26;2.80;;;0.95;;
73100;SDS011;61288;53.446;-2.266;2023-03-03T08:17:58;1.80;;;1.00;;
73100;SDS011;61288;53.446;-2.266;2023-03-03T08:20:48;3.05;;;1.00;;
73100;SDS011;61288;53.446;-2.266;2023-03-03T08:23:15;2.53;;;1.00;;
73100;SDS011;61288;53.446;-2.266;2023-03-03T08:25:42;3.53;;;1.23;;
73100;SDS011;61288;53.446;-2.266;2023-03-03T08:28:09;4.22;;;1.15;;
73100;SDS011;61288;53.446;-2.266;2023-03-03T08:30:36;3.60;;;1.40;;
73100;SDS011;61288;53.446;-2.266;2023-03-03T08:33:01;2.83;;;1.20;;
73100;SDS011;61288;53.446;-2.266;2023-03-03T08:35:28;2.97;;;1.23;;
73100;SDS011;61288;53.446;-2.266;2023-03-03T08:37:53;1.30;;;0.90;;
73100;SDS011;61288;53.446;-2.266;2023-03-03T08:40:19;4.90;;;0.93;;
73100;SDS011;61288;53.446;-2.266;2023-03-03T08:42:47;4.80;;;1.10;;
73100;SDS011;61288;53.446;-2.266;2023-03-03T08:45:13;2.92;;;1.20;;
73100;SDS011;61288;53.446;-2.266;2023-03-03T08:47:39;3.28;;;1.35;;
73100;SDS011;61288;53.446;-2.266;2023-03-03T08:50:07;1.98;;;1.10;;
73100;SDS011;61288;53.446;-2.266;2023-03-03T08:52:33;3.15;;;1.30;;
73100;SDS011;61288;53.446;-2.266;2023-03-03T08:54:59;3.80;;;1.10;;
73100;SDS011;61288;53.446;-2.266;2023-03-03T08:57:24;3.35;;;1.20;;
73100;SDS011;61288;53.446;-2.266;2023-03-03T08:59:50;4.43;;;1.10;;
73100;SDS011;61288;53.446;-2.266;2023-03-03T09:02:15;3.58;;;1.05;;
73100;SDS011;61288;53.446;-2.266;2023-03-03T09:04:41;1.80;;;0.85;;
73100;SDS011;61288;53.446;-2.266;2023-03-03T09:07:07;1.80;;;0.82;;
73100;SDS011;61288;53.446;-2.266;2023-03-03T09:09:33;1.15;;;0.70;;
73100;SDS011;61288;53.446;-2.266;2023-03-03T09:12:00;2.67;;;1.00;;
73100;SDS011;61288;53.446;-2.266;2023-03-03T09:14:46;3.30;;;1.00;;
73100;SDS011;61288;53.446;-2.266;2023-03-03T09:17:18;1.15;;;0.65;;
73100;SDS011;61288;53.446;-2.266;2023-03-03T09:23:24;3.13;;;0.93;;
73100;SDS011;61288;53.446;-2.266;2023-03-03T09:25:48;0.88;;;0.70;;
73100;SDS011;61288;53.446;-2.266;2023-03-03T09:28:25;0.95;;;0.80;;
73100;SDS011;61288;53.446;-2.266;2023-03-03T09:30:53;1.60;;;0.98;;
73100;SDS011;61288;53.446;-2.266;2023-03-03T09:33:25;4.13;;;1.38;;
73100;SDS011;61288;53.446;-2.266;2023-03-03T09:36:00;4.00;;;1.00;;
73100;SDS011;61288;53.446;-2.266;2023-03-03T09:38:44;2.40;;;0.90;;
73100;SDS011;61288;53.446;-2.266;2023-03-03T09:46:32;3.67;;;1.05;;
73100;SDS011;61288;53.446;-2.266;2023-03-03T09:57:40;3.30;;;1.15;;
73100;SDS011;61288;53.446;-2.266;2023-03-03T10:00:27;8.98;;;1.40;;
73100;SDS011;61288;53.446;-2.266;2023-03-03T10:12:17;4.60;;;1.10;;
73100;SDS011;61288;53.446;-2.266;2023-03-03T10:17:28;3.50;;;1.20;;
73100;SDS011;61288;53.446;-2.266;2023-03-03T10:28:09;3.08;;;1.20;;
73100;SDS011;61288;53.446;-2.266;2023-03-03T10:31:06;4.05;;;1.20;;
73100;SDS011;61288;53.446;-2.266;2023-03-03T10:44:53;2.08;;;1.13;;
73100;SDS011;61288;53.446;-2.266;2023-03-03T11:01:44;3.38;;;1.48;;
73100;SDS011;61288;53.446;-2.266;2023-03-03T11:07:10;3.78;;;1.52;;
73100;SDS011;61288;53.446;-2.266;2023-03-03T11:09:50;5.40;;;1.40;;
73100;SDS011;61288;53.446;-2.266;2023-03-03T11:17:47;2.90;;;1.10;;
73100;SDS011;61288;53.446;-2.266;2023-03-03T11:28:58;1.50;;;0.88;;
73100;SDS011;61288;53.446;-2.266;2023-03-03T11:31:47;3.53;;;1.00;;
73100;SDS011;61288;53.446;-2.266;2023-03-03T11:40:18;7.03;;;2.10;;
73100;SDS011;61288;53.446;-2.266;2023-03-03T11:45:38;1.00;;;0.63;;
73100;SDS011;61288;53.446;-2.266;2023-03-03T11:51:06;5.00;;;1.45;;
73100;SDS011;61288;53.446;-2.266;2023-03-03T11:53:45;1.60;;;0.98;;
73100;SDS011;61288;53.446;-2.266;2023-03-03T11:56:21;5.20;;;1.65;;
73100;SDS011;61288;53.446;-2.266;2023-03-03T12:04:52;4.20;;;1.20;;
73100;SDS011;61288;53.446;-2.266;2023-03-03T12:07:29;4.25;;;1.58;;
73100;SDS011;61288;53.446;-2.266;2023-03-03T12:10:06;6.15;;;1.92;;
73100;SDS011;61288;53.446;-2.266;2023-03-03T12:12:42;3.92;;;1.55;;
73100;SDS011;61288;53.446;-2.266;2023-03-03T12:20:15;4.25;;;1.65;;
73100;SDS011;61288;53.446;-2.266;2023-03-03T12:23:11;3.95;;;1.33;;
73100;SDS011;61288;53.446;-2.266;2023-03-03T12:28:47;4.00;;;1.30;;
73100;SDS011;61288;53.446;-2.266;2023-03-03T12:45:27;2.97;;;1.35;;
73100;SDS011;61288;53.446;-2.266;2023-03-03T12:47:59;4.07;;;1.02;;
73100;SDS011;61288;53.446;-2.266;2023-03-03T12:55:56;4.88;;;1.38;;
73100;SDS011;61288;53.446;-2.266;2023-03-03T12:58:42;4.00;;;1.10;;
73100;SDS011;61288;53.446;-2.266;2023-03-03T13:04:34;3.05;;;1.02;;
73100;SDS011;61288;53.446;-2.266;2023-03-03T13:07:16;5.07;;;1.45;;
73100;SDS011;61288;53.446;-2.266;2023-03-03T13:12:35;5.50;;;1.42;;
73100;SDS011;61288;53.446;-2.266;2023-03-03T13:15:15;8.10;;;1.95;;
73100;SDS011;61288;53.446;-2.266;2023-03-03T13:21:18;3.85;;;1.20;;
73100;SDS011;61288;53.446;-2.266;2023-03-03T13:23:28;4.82;;;0.98;;
73100;SDS011;61288;53.446;-2.266;2023-03-03T13:26:08;2.47;;;0.95;;
73100;SDS011;61288;53.446;-2.266;2023-03-03T13:28:36;3.72;;;1.30;;
73100;SDS011;61288;53.446;-2.266;2023-03-03T13:31:14;4.38;;;1.00;;
73100;SDS011;61288;53.446;-2.266;2023-03-03T13:33:45;4.03;;;2.00;;
73100;SDS011;61288;53.446;-2.266;2023-03-03T13:36:18;3.53;;;1.20;;
73100;SDS011;61288;53.446;-2.266;2023-03-03T13:39:13;3.08;;;1.02;;
73100;SDS011;61288;53.446;-2.266;2023-03-03T13:41:50;4.15;;;0.80;;
73100;SDS011;61288;53.446;-2.266;2023-03-03T13:44:42;6.22;;;1.42;;
73100;SDS011;61288;53.446;-2.266;2023-03-03T13:47:19;9.52;;;1.83;;
73100;SDS011;61288;53.446;-2.266;2023-03-03T13:52:26;4.93;;;1.40;;
73100;SDS011;61288;53.446;-2.266;2023-03-03T13:55:19;3.45;;;1.17;;
73100;SDS011;61288;53.446;-2.266;2023-03-03T14:05:29;5.90;;;1.35;;
73100;SDS011;61288;53.446;-2.266;2023-03-03T14:07:59;3.78;;;1.20;;
73100;SDS011;61288;53.446;-2.266;2023-03-03T14:10:48;4.10;;;1.15;;
73100;SDS011;61288;53.446;-2.266;2023-03-03T14:13:23;2.95;;;1.20;;
73100;SDS011;61288;53.446;-2.266;2023-03-03T14:18:27;2.90;;;1.33;;
73100;SDS011;61288;53.446;-2.266;2023-03-03T14:21:02;2.60;;;1.17;;
73100;SDS011;61288;53.446;-2.266;2023-03-03T14:26:14;4.40;;;1.23;;
73100;SDS011;61288;53.446;-2.266;2023-03-03T14:28:46;3.58;;;1.20;;
73100;SDS011;61288;53.446;-2.266;2023-03-03T14:33:55;3.42;;;1.08;;
73100;SDS011;61288;53.446;-2.266;2023-03-03T14:36:25;4.90;;;1.13;;
73100;SDS011;61288;53.446;-2.266;2023-03-03T14:39:00;2.78;;;1.10;;
73100;SDS011;61288;53.446;-2.266;2023-03-03T14:41:39;8.95;;;1.73;;
73100;SDS011;61288;53.446;-2.266;2023-03-03T14:47:19;5.03;;;1.40;;
73100;SDS011;61288;53.446;-2.266;2023-03-03T14:49:49;4.53;;;1.60;;
73100;SDS011;61288;53.446;-2.266;2023-03-03T14:55:35;3.90;;;1.65;;
73100;SDS011;61288;53.446;-2.266;2023-03-03T14:57:47;5.60;;;1.25;;
73100;SDS011;61288;53.446;-2.266;2023-03-03T15:05:47;8.43;;;1.83;;
73100;SDS011;61288;53.446;-2.266;2023-03-03T15:08:34;5.72;;;1.60;;
73100;SDS011;61288;53.446;-2.266;2023-03-03T15:14:19;3.40;;;1.17;;
73100;SDS011;61288;53.446;-2.266;2023-03-03T15:16:53;4.22;;;1.40;;
73100;SDS011;61288;53.446;-2.266;2023-03-03T15:19:25;6.20;;;1.58;;
73100;SDS011;61288;53.446;-2.266;2023-03-03T15:22:16;4.18;;;1.20;;
73100;SDS011;61288;53.446;-2.266;2023-03-03T15:25:03;3.33;;;1.20;;
73100;SDS011;61288;53.446;-2.266;2023-03-03T15:30:38;4.47;;;1.33;;
73100;SDS011;61288;53.446;-2.266;2023-03-03T15:35:52;6.35;;;1.83;;
73100;SDS011;61288;53.446;-2.266;2023-03-03T15:56:58;3.47;;;1.20;;
73100;SDS011;61288;53.446;-2.266;2023-03-03T16:05:06;4.68;;;1.48;;
73100;SDS011;61288;53.446;-2.266;2023-03-03T16:13:31;6.32;;;1.50;;
73100;SDS011;61288;53.446;-2.266;2023-03-03T16:30:02;6.30;;;2.00;;
73100;SDS011;61288;53.446;-2.266;2023-03-03T16:35:25;6.47;;;2.05;;
73100;SDS011;61288;53.446;-2.266;2023-03-03T16:38:01;7.13;;;1.98;;
73100;SDS011;61288;53.446;-2.266;2023-03-03T16:40:31;8.75;;;2.20;;
73100;SDS011;61288;53.446;-2.266;2023-03-03T16:45:39;8.02;;;2.55;;
73100;SDS011;61288;53.446;-2.266;2023-03-03T16:53:25;5.53;;;2.00;;
73100;SDS011;61288;53.446;-2.266;2023-03-03T16:56:02;10.82;;;1.90;;
73100;SDS011;61288;53.446;-2.266;2023-03-03T17:01:38;5.75;;;1.70;;
73100;SDS011;61288;53.446;-2.266;2023-03-03T17:07:11;10.77;;;2.30;;
73100;SDS011;61288;53.446;-2.266;2023-03-03T17:09:56;5.38;;;1.80;;
73100;SDS011;61288;53.446;-2.266;2023-03-03T17:20:54;12.30;;;3.22;;
73100;SDS011;61288;53.446;-2.266;2023-03-03T17:23:46;9.15;;;2.20;;
73100;SDS011;61288;53.446;-2.266;2023-03-03T17:34:28;8.85;;;2.67;;
73100;SDS011;61288;53.446;-2.266;2023-03-03T17:37:23;8.48;;;2.90;;
73100;SDS011;61288;53.446;-2.266;2023-03-03T17:45:09;7.93;;;2.28;;
73100;SDS011;61288;53.446;-2.266;2023-03-03T17:58:33;9.05;;;2.50;;
73100;SDS011;61288;53.446;-2.266;2023-03-03T18:06:43;7.65;;;1.90;;
73100;SDS011;61288;53.446;-2.266;2023-03-03T18:26:28;7.32;;;1.80;;
73100;SDS011;61288;53.446;-2.266;2023-03-03T18:37:41;12.35;;;2.80;;
73100;SDS011;61288;53.446;-2.266;2023-03-03T18:50:40;10.95;;;2.70;;
73100;SDS011;61288;53.446;-2.266;2023-03-03T18:55:49;11.80;;;2.75;;
73100;SDS011;61288;53.446;-2.266;2023-03-03T19:00:43;6.00;;;1.77;;
73100;SDS011;61288;53.446;-2.266;2023-03-03T19:05:56;8.48;;;2.05;;
73100;SDS011;61288;53.446;-2.266;2023-03-03T19:08:43;8.40;;;2.28;;
73100;SDS011;61288;53.446;-2.266;2023-03-03T19:16:42;9.43;;;2.60;;
73100;SDS011;61288;53.446;-2.266;2023-03-03T19:19:13;13.55;;;3.05;;
73100;SDS011;61288;53.446;-2.266;2023-03-03T19:21:41;6.40;;;2.08;;
73100;SDS011;61288;53.446;-2.266;2023-03-03T19:24:25;8.82;;;2.33;;
73100;SDS011;61288;53.446;-2.266;2023-03-03T19:26:56;8.82;;;2.50;;
73100;SDS011;61288;53.446;-2.266;2023-03-03T19:29:55;10.15;;;2.65;;
73100;SDS011;61288;53.446;-2.266;2023-03-03T19:38:34;11.63;;;2.92;;
73100;SDS011;61288;53.446;-2.266;2023-03-03T19:46:57;11.35;;;3.03;;
73100;SDS011;61288;53.446;-2.266;2023-03-03T20:00:41;10.30;;;2.78;;
73100;SDS011;61288;53.446;-2.266;2023-03-03T20:05:51;12.23;;;3.15;;
73100;SDS011;61288;53.446;-2.266;2023-03-03T20:08:52;16.58;;;3.28;;
73100;SDS011;61288;53.446;-2.266;2023-03-03T20:11:48;11.70;;;3.00;;
73100;SDS011;61288;53.446;-2.266;2023-03-03T20:25:45;8.35;;;2.40;;
73100;SDS011;61288;53.446;-2.266;2023-03-03T20:28:25;9.32;;;3.00;;
73100;SDS011;61288;53.446;-2.266;2023-03-03T20:31:26;11.15;;;2.38;;
73100;SDS011;61288;53.446;-2.266;2023-03-03T20:34:06;11.60;;;2.55;;
73100;SDS011;61288;53.446;-2.266;2023-03-03T21:01:14;10.98;;;2.50;;
73100;SDS011;61288;53.446;-2.266;2023-03-03T21:03:45;12.02;;;2.88;;
73100;SDS011;61288;53.446;-2.266;2023-03-03T21:06:14;18.98;;;3.55;;
73100;SDS011;61288;53.446;-2.266;2023-03-03T21:08:53;16.02;;;3.45;;
73100;SDS011;61288;53.446;-2.266;2023-03-03T21:11:21;9.30;;;2.70;;
73100;SDS011;61288;53.446;-2.266;2023-03-03T21:13:52;12.50;;;3.33;;
73100;SDS011;61288;53.446;-2.266;2023-03-03T21:18:59;10.77;;;2.88;;
73100;SDS011;61288;53.446;-2.266;2023-03-03T21:21:28;14.00;;;3.28;;
73100;SDS011;61288;53.446;-2.266;2023-03-03T21:23:56;12.13;;;2.97;;
73100;SDS011;61288;53.446;-2.266;2023-03-03T21:31:56;10.10;;;3.20;;
73100;SDS011;61288;53.446;-2.266;2023-03-03T21:34:37;13.32;;;3.20;;
73100;SDS011;61288;53.446;-2.266;2023-03-03T21:37:12;12.85;;;3.72;;
73100;SDS011;61288;53.446;-2.266;2023-03-03T21:40:13;17.75;;;4.60;;
73100;SDS011;61288;53.446;-2.266;2023-03-03T21:42:39;11.30;;;3.67;;
73100;SDS011;61288;53.446;-2.266;2023-03-03T21:45:12;12.38;;;3.17;;
73100;SDS011;61288;53.446;-2.266;2023-03-03T21:47:40;10.93;;;3.17;;
73100;SDS011;61288;53.446;-2.266;2023-03-03T21:50:07;11.05;;;3.45;;
73100;SDS011;61288;53.446;-2.266;2023-03-03T21:52:33;13.70;;;3.92;;
73100;SDS011;61288;53.446;-2.266;2023-03-03T21:54:58;12.05;;;3.42;;
73100;SDS011;61288;53.446;-2.266;2023-03-03T21:57:24;12.52;;;3.80;;
73100;SDS011;61288;53.446;-2.266;2023-03-03T21:59:50;13.88;;;3.58;;
73100;SDS011;61288;53.446;-2.266;2023-03-03T22:02:15;12.48;;;3.85;;
73100;SDS011;61288;53.446;-2.266;2023-03-03T22:04:41;14.32;;;3.85;;
73100;SDS011;61288;53.446;-2.266;2023-03-03T22:07:06;11.10;;;3.20;;
73100;SDS011;61288;53.446;-2.266;2023-03-03T22:09:33;11.18;;;3.38;;
73100;SDS011;61288;53.446;-2.266;2023-03-03T22:11:58;13.60;;;3.20;;
73100;SDS011;61288;53.446;-2.266;2023-03-03T22:14:24;11.32;;;3.05;;
73100;SDS011;61288;53.446;-2.266;2023-03-03T22:16:50;10.55;;;3.20;;
73100;SDS011;61288;53.446;-2.266;2023-03-03T22:19:15;8.90;;;2.85;;
73100;SDS011;61288;53.446;-2.266;2023-03-03T22:21:40;12.90;;;3.35;;
73100;SDS011;61288;53.446;-2.266;2023-03-03T22:24:06;12.00;;;3.28;;
73100;SDS011;61288;53.446;-2.266;2023-03-03T22:26:32;10.85;;;3.10;;
73100;SDS011;61288;53.446;-2.266;2023-03-03T22:28:59;17.15;;;3.40;;
73100;SDS011;61288;53.446;-2.266;2023-03-03T22:31:24;17.17;;;3.50;;
73100;SDS011;61288;53.446;-2.266;2023-03-03T22:33:50;10.20;;;3.22;;
73100;SDS011;61288;53.446;-2.266;2023-03-03T22:36:15;11.00;;;3.65;;
73100;SDS011;61288;53.446;-2.266;2023-03-03T22:38:43;13.63;;;4.05;;
73100;SDS011;61288;53.446;-2.266;2023-03-03T22:41:10;12.82;;;4.53;;
73100;SDS011;61288;53.446;-2.266;2023-03-03T22:43:35;13.90;;;4.05;;
73100;SDS011;61288;53.446;-2.266;2023-03-03T22:46:01;12.75;;;3.95;;
73100;SDS011;61288;53.446;-2.266;2023-03-03T22:48:26;9.02;;;3.35;;
73100;SDS011;61288;53.446;-2.266;2023-03-03T22:50:53;14.18;;;3.72;;
73100;SDS011;61288;53.446;-2.266;2023-03-03T22:53:20;12.25;;;3.70;;
73100;SDS011;61288;53.446;-2.266;2023-03-03T22:55:46;10.55;;;3.42;;
73100;SDS011;61288;53.446;-2.266;2023-03-03T22:58:13;14.38;;;3.78;;
73100;SDS011;61288;53.446;-2.266;2023-03-03T23:00:40;12.50;;;3.75;;
73100;SDS011;61288;53.446;-2.266;2023-03-03T23:03:09;11.35;;;3.10;;
73100;SDS011;61288;53.446;-2.266;2023-03-03T23:05:35;10.73;;;3.00;;
73100;SDS011;61288;53.446;-2.266;2023-03-03T23:08:01;9.57;;;2.90;;
73100;SDS011;61288;53.446;-2.266;2023-03-03T23:10:27;10.73;;;3.42;;
73100;SDS011;61288;53.446;-2.266;2023-03-03T23:12:53;9.70;;;2.60;;
73100;SDS011;61288;53.446;-2.266;2023-03-03T23:15:18;10.18;;;2.25;;
73100;SDS011;61288;53.446;-2.266;2023-03-03T23:17:44;10.52;;;2.20;;
73100;SDS011;61288;53.446;-2.266;2023-03-03T23:20:11;8.65;;;2.50;;
73100;SDS011;61288;53.446;-2.266;2023-03-03T23:22:39;9.65;;;2.60;;
73100;SDS011;61288;53.446;-2.266;2023-03-03T23:25:05;10.07;;;2.72;;
73100;SDS011;61288;53.446;-2.266;2023-03-03T23:27:33;11.90;;;3.33;;
73100;SDS011;61288;53.446;-2.266;2023-03-03T23:29:59;9.90;;;2.90;;
73100;SDS011;61288;53.446;-2.266;2023-03-03T23:32:25;12.38;;;2.75;;
73100;SDS011;61288;53.446;-2.266;2023-03-03T23:34:54;9.07;;;2.65;;
73100;SDS011;61288;53.446;-2.266;2023-03-03T23:37:20;6.22;;;2.47;;
73100;SDS011;61288;53.446;-2.266;2023-03-03T23:39:45;6.90;;;2.20;;
73100;SDS011;61288;53.446;-2.266;2023-03-03T23:42:11;8.20;;;2.13;;
73100;SDS011;61288;53.446;-2.266;2023-03-03T23:44:37;8.95;;;2.40;;
73100;SDS011;61288;53.446;-2.266;2023-03-03T23:47:04;7.38;;;1.90;;
73100;SDS011;61288;53.446;-2.266;2023-03-03T23:49:31;4.82;;;1.95;;
73100;SDS011;61288;53.446;-2.266;2023-03-03T23:51:56;5.15;;;1.95;;
73100;SDS011;61288;53.446;-2.266;2023-03-03T23:54:22;6.88;;;1.95;;
73100;SDS011;61288;53.446;-2.266;2023-03-03T23:56:47;6.65;;;1.92;;
73100;SDS011;61288;53.446;-2.266;2023-03-03T23:59:13;14.52;;;2.35;;
